Time;durP1;ratioP1;P1;durP2;ratioP2;P2;SDS_P1;SDS_P2;PMS_P1;PMS_P2;Temp;Humidity;BMP_temperature;BMP_pressure;BME280_temperature;BME280_humidity;BME280_pressure;Samples;Min_cycle;Max_cycle;Signal;HPM_P1;HPM_P2
2024/01/07 00:00:16;;;;;;;15.95;6.65;;;;;;;6.46;58.69;100988.84;672207;29;1278;-84
2024/01/07 00:00:38;;;;;;;14.50;5.72;;;;;;;6.39;58.44;100981.59;669248;29;1970;-85
2024/01/07 00:00:58;;;;;;;10.60;4.82;;;;;;;6.37;58.81;100973.72;672141;29;1323;-84
2024/01/07 00:01:20;;;;;;;9.13;4.17;;;;;;;6.41;58.52;100986.03;674243;29;1263;-85
2024/01/07 00:01:46;;;;;;;7.55;5.18;;;;;;;6.39;58.47;100977.25;669957;29;1382;-85
2024/01/07 00:02:07;;;;;;;7.30;5.10;;;;;;;6.39;58.73;100981.59;669048;29;868;-85
2024/01/07 00:02:27;;;;;;;9.05;5.50;;;;;;;6.42;58.41;100976.53;666922;29;1212;-84
2024/01/07 00:02:48;;;;;;;8.67;5.13;;;;;;;6.41;58.34;100982.53;672208;29;762;-84
2024/01/07 00:03:08;;;;;;;9.83;5.43;;;;;;;6.37;58.74;100985.78;669606;29;972;-84
2024/01/07 00:03:29;;;;;;;8.30;4.82;;;;;;;6.37;58.88;100993.56;670532;29;1131;-84
2024/01/07 00:03:51;;;;;;;7.53;4.65;;;;;;;6.33;58.98;100970.91;667008;29;1201;-84
2024/01/07 00:04:12;;;;;;;7.65;4.70;;;;;;;6.37;58.54;100991.88;666900;29;1248;-84
2024/01/07 00:04:34;;;;;;;7.45;4.63;;;;;;;6.37;58.29;100986.69;672109;29;1073;-85
2024/01/07 00:04:54;;;;;;;8.98;5.18;;;;;;;6.36;58.44;100986.59;674610;29;906;-84
2024/01/07 00:05:15;;;;;;;8.47;5.40;;;;;;;6.36;58.63;100991.78;672070;29;1064;-84
2024/01/07 00:05:37;;;;;;;9.50;5.65;;;;;;;6.32;58.63;100979.50;671868;29;1266;-84
2024/01/07 00:05:57;;;;;;;11.00;5.72;;;;;;;6.32;58.48;100975.19;669578;29;1133;-84
2024/01/07 00:06:18;;;;;;;10.98;5.65;;;;;;;6.32;58.61;100987.28;672098;29;1137;-84
2024/01/07 00:06:39;;;;;;;9.70;5.50;;;;;;;6.32;58.70;100987.28;673518;29;1210;-85
2024/01/07 00:06:59;;;;;;;8.57;5.05;;;;;;;6.32;58.45;100984.69;672000;29;1165;-84
2024/01/07 00:07:20;;;;;;;10.57;5.15;;;;;;;6.29;58.45;100986.31;672130;29;1252;-84
2024/01/07 00:07:41;;;;;;;8.55;4.72;;;;;;;6.35;58.36;101000.38;671254;29;1252;-84
2024/01/07 00:08:01;;;;;;;7.90;4.80;;;;;;;6.29;58.38;100995.78;674699;29;1482;-84
2024/01/07 00:08:22;;;;;;;7.47;4.85;;;;;;;6.30;58.45;100988.09;671962;29;1160;-84
2024/01/07 00:08:42;;;;;;;9.13;4.95;;;;;;;6.29;58.79;100986.31;671753;29;1321;-84
2024/01/07 00:09:03;;;;;;;7.07;4.30;;;;;;;6.27;58.57;100998.28;669450;29;1133;-84
2024/01/07 00:09:24;;;;;;;5.20;3.85;;;;;;;6.24;58.56;100980.00;672151;29;1021;-83
2024/01/07 00:09:44;;;;;;;4.07;3.70;;;;;;;6.28;58.43;100988.81;669554;29;1220;-84
2024/01/07 00:10:05;;;;;;;5.57;4.20;;;;;;;6.24;58.30;100987.78;670777;29;770;-83
2024/01/07 00:10:26;;;;;;;5.97;4.38;;;;;;;6.35;58.43;101000.38;669576;29;983;-84
2024/01/07 00:10:46;;;;;;;6.70;5.30;;;;;;;6.22;58.22;100992.00;669552;29;1276;-83
2024/01/07 00:11:07;;;;;;;5.33;4.80;;;;;;;6.21;58.63;100991.94;670077;29;1417;-84
2024/01/07 00:11:27;;;;;;;5.97;4.90;;;;;;;6.22;58.13;100988.53;674594;29;1212;-84
2024/01/07 00:11:49;;;;;;;5.05;4.10;;;;;;;6.22;58.44;100992.00;672100;29;1280;-84
2024/01/07 00:12:09;;;;;;;10.30;4.82;;;;;;;6.18;58.08;100982.28;669522;29;1128;-83
2024/01/07 00:12:31;;;;;;;9.80;4.80;;;;;;;6.29;58.28;100999.28;669134;29;1194;-83
2024/01/07 00:12:52;;;;;;;9.80;5.03;;;;;;;6.20;58.44;100991.03;669617;29;848;-83
2024/01/07 00:13:12;;;;;;;7.50;5.32;;;;;;;6.19;58.53;100988.38;670111;29;853;-83
2024/01/07 00:13:33;;;;;;;8.50;5.53;;;;;;;6.20;58.59;100991.03;671918;29;1184;-84
2024/01/07 00:13:53;;;;;;;9.10;5.72;;;;;;;6.16;58.41;100994.28;669348;29;1433;-84
2024/01/07 00:14:16;;;;;;;8.57;5.53;;;;;;;6.19;58.68;100997.03;674702;29;1038;-84
2024/01/07 00:14:37;;;;;;;8.00;5.25;;;;;;;6.22;58.41;101002.38;671195;29;1145;-84
2024/01/07 00:14:57;;;;;;;8.70;5.13;;;;;;;6.18;58.95;100991.78;674588;29;1064;-83
2024/01/07 00:15:18;;;;;;;8.37;5.63;;;;;;;6.13;58.38;100989.84;674711;29;894;-84
2024/01/07 00:15:38;;;;;;;10.10;5.97;;;;;;;6.16;58.30;100994.28;677026;29;1292;-84
2024/01/07 00:15:59;;;;;;;10.00;6.15;;;;;;;6.14;58.76;100990.75;669405;29;1292;-83
2024/01/07 00:16:20;;;;;;;9.43;5.63;;;;;;;6.14;58.42;100989.03;671262;29;1276;-84
2024/01/07 00:16:40;;;;;;;8.70;5.43;;;;;;;6.14;58.63;100990.75;669086;29;1240;-84
2024/01/07 00:17:01;;;;;;;9.25;5.05;;;;;;;6.20;58.94;100996.22;672126;29;916;-84
2024/01/07 00:17:21;;;;;;;7.60;4.43;;;;;;;6.16;58.57;100994.28;671993;29;1162;-84
2024/01/07 00:17:42;;;;;;;6.00;4.83;;;;;;;6.20;58.36;101005.72;669239;29;1082;-84
2024/01/07 00:18:02;;;;;;;5.80;5.20;;;;;;;6.17;58.60;100990.88;669801;29;1294;-84
2024/01/07 00:18:24;;;;;;;6.77;5.17;;;;;;;6.16;58.61;100989.97;674661;29;1124;-84
2024/01/07 00:18:44;;;;;;;7.25;4.85;;;;;;;6.20;58.10;100995.34;674384;29;1234;-84
2024/01/07 00:19:06;;;;;;;6.78;4.75;;;;;;;6.27;58.77;101008.66;672332;29;1167;-83
2024/01/07 00:19:27;;;;;;;8.20;5.50;;;;;;;6.13;58.32;100989.84;669317;29;1265;-84
2024/01/07 00:19:47;;;;;;;10.30;5.72;;;;;;;6.12;58.59;100984.56;672106;29;1045;-84
2024/01/07 00:20:08;;;;;;;9.50;5.67;;;;;;;6.14;58.45;100994.22;680056;29;1234;-84
2024/01/07 00:20:29;;;;;;;8.65;5.57;;;;;;;6.13;58.56;100995.03;674634;29;1131;-84
2024/01/07 00:20:50;;;;;;;5.83;5.10;;;;;;;6.16;58.45;101002.06;672025;29;2021;-83
2024/01/07 00:21:11;;;;;;;8.57;5.47;;;;;;;6.20;58.50;101006.56;674722;29;788;-84
2024/01/07 00:21:31;;;;;;;9.23;5.30;;;;;;;6.19;58.44;101001.34;674360;29;1058;-83
2024/01/07 00:21:52;;;;;;;9.50;5.30;;;;;;;6.14;58.56;100995.94;677178;29;1310;-84
2024/01/07 00:22:12;;;;;;;10.53;5.00;;;;;;;6.17;58.76;101001.25;677363;29;1242;-84
2024/01/07 00:22:33;;;;;;;10.07;4.90;;;;;;;6.15;58.61;100990.81;676991;29;1147;-84
2024/01/07 00:22:53;;;;;;;9.35;4.70;;;;;;;6.14;58.35;100990.75;674878;29;1156;-84
2024/01/07 00:23:14;;;;;;;5.30;4.37;;;;;;;6.15;58.32;100989.94;669540;29;1342;-84
2024/01/07 00:23:34;;;;;;;4.57;4.17;;;;;;;6.11;58.52;100991.47;674450;29;1261;-84
2024/01/07 00:23:55;;;;;;;5.75;4.50;;;;;;;6.14;58.51;100996.81;677183;29;1227;-84
2024/01/07 00:24:16;;;;;;;8.77;5.60;;;;;;;6.14;58.45;100996.81;669595;29;1023;-84
2024/01/07 00:24:36;;;;;;;11.88;5.68;;;;;;;6.19;58.50;100998.75;671211;29;1184;-84
2024/01/07 00:24:57;;;;;;;12.05;5.60;;;;;;;6.11;58.63;100993.16;669547;29;1211;-84
2024/01/07 00:25:18;;;;;;;10.90;5.07;;;;;;;6.11;58.11;100991.47;669655;29;1126;-84
2024/01/07 00:25:38;;;;;;;8.23;5.32;;;;;;;6.14;58.29;100998.53;671959;29;1115;-84
2024/01/07 00:25:59;;;;;;;7.00;5.20;;;;;;;6.12;58.34;100997.53;669631;29;774;-84
2024/01/07 00:26:19;;;;;;;6.80;5.00;;;;;;;6.10;58.37;100999.16;669544;29;1170;-84
2024/01/07 00:26:40;;;;;;;7.47;5.60;;;;;;;6.14;58.33;101007.16;668441;29;1258;-84
2024/01/07 00:27:01;;;;;;;10.27;5.63;;;;;;;6.09;58.70;100995.72;672028;29;1338;-84
2024/01/07 00:27:21;;;;;;;10.07;5.80;;;;;;;6.10;58.42;100999.16;677260;29;1279;-84
2024/01/07 00:27:42;;;;;;;9.87;5.00;;;;;;;6.11;58.98;100995.75;677090;29;1115;-84
2024/01/07 00:28:02;;;;;;;7.78;5.60;;;;;;;6.11;58.36;101006.13;672076;29;1168;-84
2024/01/07 00:28:23;;;;;;;7.22;5.25;;;;;;;6.07;58.53;100993.84;669330;29;1161;-85
2024/01/07 00:28:43;;;;;;;7.20;5.43;;;;;;;6.11;58.51;101000.94;671823;29;1201;-83
2024/01/07 00:29:04;;;;;;;7.47;5.57;;;;;;;6.11;58.47;101003.53;672154;29;1248;-84
2024/01/07 00:29:24;;;;;;;10.30;6.37;;;;;;;6.11;58.39;100998.34;671528;29;1257;-82
2024/01/07 00:29:45;;;;;;;10.38;6.53;;;;;;;6.04;58.46;100997.16;671983;29;1140;-84
2024/01/07 00:30:06;;;;;;;10.68;6.70;;;;;;;6.07;58.61;101005.06;672040;29;801;-83
2024/01/07 00:30:27;;;;;;;9.10;6.50;;;;;;;5.99;58.61;100996.94;671722;29;1126;-83
2024/01/07 00:31:34;;;;;;;9.93;6.90;;;;;;;6.13;58.50;101009.66;672039;29;1016;-84
2024/01/07 00:31:56;;;;;;;8.15;5.40;;;;;;;5.99;58.45;100994.34;669393;29;1396;-83
2024/01/07 00:32:16;;;;;;;9.65;5.57;;;;;;;5.95;58.76;100999.28;669464;29;948;-84
2024/01/07 00:32:37;;;;;;;9.73;5.93;;;;;;;6.01;58.47;101000.50;671796;29;1233;-84
2024/01/07 00:32:57;;;;;;;11.00;6.57;;;;;;;5.98;58.54;100995.16;673111;29;1127;-84
2024/01/07 00:33:18;;;;;;;9.55;6.63;;;;;;;5.98;58.71;100997.75;674545;29;1069;-84
2024/01/07 00:33:39;;;;;;;10.77;6.83;;;;;;;6.01;58.64;101004.75;669222;29;1249;-84
2024/01/07 00:33:59;;;;;;;10.00;6.37;;;;;;;6.01;58.83;100999.59;669548;29;1281;-83
2024/01/07 00:34:20;;;;;;;11.50;6.43;;;;;;;6.06;58.42;101011.06;666925;29;1313;-83
2024/01/07 00:34:40;;;;;;;10.10;5.57;;;;;;;5.98;58.29;101002.03;668654;29;1161;-84
2024/01/07 00:35:02;;;;;;;10.23;5.40;;;;;;;5.97;58.92;101003.75;667021;29;773;-84
2024/01/07 00:35:23;;;;;;;9.48;5.57;;;;;;;5.97;58.44;101005.44;667008;29;991;-84
2024/01/07 00:35:43;;;;;;;9.82;5.70;;;;;;;5.92;58.50;100996.53;668906;29;1185;-84
2024/01/07 00:36:04;;;;;;;11.23;6.23;;;;;;;5.98;58.48;101009.81;672066;29;1064;-84
2024/01/07 00:36:25;;;;;;;10.63;5.37;;;;;;;5.91;58.51;100998.25;674526;29;1155;-84
2024/01/07 00:36:45;;;;;;;10.05;5.50;;;;;;;5.96;58.37;101001.94;674462;29;861;-84
2024/01/07 00:37:06;;;;;;;11.25;5.47;;;;;;;5.94;58.73;101006.16;674726;29;967;-84
2024/01/07 00:37:26;;;;;;;10.40;5.67;;;;;;;6.02;58.66;101022.97;677384;29;1300;-84
2024/01/07 00:37:47;;;;;;;9.35;5.43;;;;;;;6.01;58.35;101010.84;677253;29;806;-84
2024/01/07 00:38:08;;;;;;;11.20;6.25;;;;;;;5.98;58.53;100999.44;672042;29;1136;-84
2024/01/07 00:38:28;;;;;;;17.90;6.37;;;;;;;5.98;58.01;101000.34;671710;29;1136;-83
2024/01/07 00:38:49;;;;;;;18.85;5.82;;;;;;;5.99;58.16;101002.13;669694;29;793;-84
2024/01/07 00:39:09;;;;;;;14.87;5.03;;;;;;;5.97;58.63;101006.34;669329;29;1154;-83
2024/01/07 00:39:30;;;;;;;9.73;5.23;;;;;;;6.02;58.44;101017.81;671702;29;1293;-83
2024/01/07 00:39:50;;;;;;;9.60;5.97;;;;;;;5.94;58.55;100990.63;674892;29;836;-83
2024/01/07 00:40:11;;;;;;;9.60;5.50;;;;;;;6.00;58.65;101003.91;676422;29;1387;-83
2024/01/07 00:40:32;;;;;;;8.80;5.32;;;;;;;5.95;58.74;101007.94;674379;29;1234;-84
2024/01/07 00:40:53;;;;;;;7.83;5.43;;;;;;;5.99;58.39;101015.06;671913;29;1962;-84
2024/01/07 00:41:14;;;;;;;8.80;5.68;;;;;;;5.93;58.81;101004.41;669645;29;825;-84
2024/01/07 00:41:34;;;;;;;8.10;5.50;;;;;;;5.89;58.46;101002.44;669254;29;1054;-83
2024/01/07 00:41:55;;;;;;;7.38;5.30;;;;;;;5.91;58.79;101000.84;672074;29;1316;-84
2024/01/07 00:42:16;;;;;;;7.25;5.10;;;;;;;5.94;58.50;101001.00;672186;29;796;-84
2024/01/07 00:42:36;;;;;;;10.37;5.67;;;;;;;5.96;58.45;101016.63;668804;29;1373;-83
2024/01/07 00:42:57;;;;;;;12.45;5.70;;;;;;;5.93;58.20;101011.25;669510;29;825;-83
2024/01/07 00:43:18;;;;;;;11.83;6.03;;;;;;;5.89;58.46;101010.22;669651;29;742;-84
2024/01/07 00:43:38;;;;;;;7.68;5.30;;;;;;;5.88;58.58;101011.94;673332;29;1269;-83
2024/01/07 00:43:59;;;;;;;7.05;5.40;;;;;;;5.90;58.52;101006.84;677194;29;764;-83
2024/01/07 00:44:20;;;;;;;7.00;5.00;;;;;;;5.92;58.55;101018.16;674502;29;1122;-84
2024/01/07 00:44:40;;;;;;;7.18;4.80;;;;;;;5.85;58.33;101000.53;668499;29;1275;-83
2024/01/07 00:45:01;;;;;;;9.70;4.93;;;;;;;5.91;58.56;101012.88;669325;29;1047;-83
2024/01/07 00:45:21;;;;;;;10.80;4.95;;;;;;;5.89;58.44;101015.38;669501;29;1066;-83
2024/01/07 00:45:42;;;;;;;10.15;4.95;;;;;;;5.90;58.63;101014.59;670770;29;1087;-84
2024/01/07 00:46:03;;;;;;;7.30;4.97;;;;;;;5.90;58.66;101014.59;674712;29;981;-83
2024/01/07 00:46:23;;;;;;;7.53;5.03;;;;;;;5.90;58.46;101017.19;671835;29;1133;-83
2024/01/07 00:46:44;;;;;;;8.48;5.07;;;;;;;5.86;58.37;101010.97;671529;29;972;-83
2024/01/07 00:47:04;;;;;;;6.37;4.23;;;;;;;5.89;58.67;101008.53;672060;29;1041;-83
2024/01/07 00:47:25;;;;;;;7.37;4.27;;;;;;;5.90;58.45;101006.84;672580;29;1604;-82
2024/01/07 00:47:45;;;;;;;7.03;4.60;;;;;;;5.92;58.15;101014.66;672856;29;1057;-83
2024/01/07 00:48:07;;;;;;;7.20;5.03;;;;;;;5.89;58.22;101016.28;677361;29;804;-83
2024/01/07 00:48:28;;;;;;;10.35;6.00;;;;;;;5.85;58.51;101005.69;671996;29;1474;-84
2024/01/07 00:48:48;;;;;;;13.10;5.90;;;;;;;5.82;58.52;101014.19;669464;29;1246;-83
2024/01/07 00:49:09;;;;;;;13.47;6.00;;;;;;;5.84;58.58;101014.28;669170;29;1251;-83
2024/01/07 00:49:30;;;;;;;11.60;5.90;;;;;;;5.86;58.29;101025.59;671836;29;1279;-83
2024/01/07 00:49:51;;;;;;;9.05;5.80;;;;;;;5.83;58.30;101015.09;669371;29;1196;-83
2024/01/07 00:50:11;;;;;;;8.70;5.80;;;;;;;5.83;58.45;101015.09;669452;29;887;-83
2024/01/07 00:50:32;;;;;;;7.68;5.20;;;;;;;5.84;58.46;101014.28;666474;29;1362;-83
2024/01/07 00:50:52;;;;;;;9.57;5.20;;;;;;;5.83;58.67;101005.63;672105;29;734;-83
2024/01/07 00:51:13;;;;;;;10.07;5.43;;;;;;;5.88;58.36;101019.69;669418;29;1059;-83
2024/01/07 00:51:33;;;;;;;10.32;5.85;;;;;;;5.88;58.39;101023.97;669280;29;1136;-84
2024/01/07 00:51:54;;;;;;;8.00;5.63;;;;;;;5.86;58.61;101023.94;669432;29;1127;-83
2024/01/07 00:52:15;;;;;;;9.57;5.82;;;;;;;5.80;58.33;101004.56;672020;29;1439;-83
2024/01/07 00:52:36;;;;;;;10.95;5.53;;;;;;;5.84;58.67;101011.69;670704;29;1685;-83
2024/01/07 00:52:57;;;;;;;12.63;6.03;;;;;;;5.93;58.53;101024.22;669484;29;824;-83
2024/01/07 00:53:18;;;;;;;9.03;5.47;;;;;;;5.93;58.43;101021.63;664413;29;1158;-83
2024/01/07 00:53:38;;;;;;;9.25;5.63;;;;;;;5.91;58.38;101015.47;668112;29;1358;-83
2024/01/07 00:53:59;;;;;;;9.07;5.60;;;;;;;5.90;58.23;101019.78;669423;29;1239;-83
2024/01/07 00:54:20;;;;;;;9.60;5.50;;;;;;;5.92;58.35;101031.13;669631;29;887;-83
2024/01/07 00:54:40;;;;;;;9.10;5.47;;;;;;;5.86;58.77;101012.66;671131;29;1238;-83
2024/01/07 00:55:03;;;;;;;7.57;5.03;;;;;;;5.89;58.31;101017.97;671752;29;1160;-83
2024/01/07 00:55:23;;;;;;;7.30;4.93;;;;;;;5.89;58.22;101020.56;671702;29;1088;-84
2024/01/07 00:55:44;;;;;;;8.97;5.23;;;;;;;5.85;58.20;101023.84;673954;29;1092;-83
2024/01/07 00:56:05;;;;;;;9.55;5.53;;;;;;;5.91;58.29;101031.94;669352;29;948;-83
2024/01/07 00:56:26;;;;;;;9.18;6.20;;;;;;;5.84;58.29;101024.66;666776;29;1224;-83
2024/01/07 00:56:47;;;;;;;7.72;6.03;;;;;;;5.86;58.36;101026.50;671918;29;1121;-83
2024/01/07 00:57:11;;;;;;;8.27;6.13;;;;;;;5.90;58.62;101037.91;676035;29;800;-84
2024/01/07 00:57:32;;;;;;;9.77;5.78;;;;;;;5.85;58.22;101023.84;676487;29;1062;-83
2024/01/07 00:57:53;;;;;;;10.82;5.72;;;;;;;5.84;58.15;101019.47;666846;29;1155;-83
2024/01/07 00:58:13;;;;;;;10.13;5.80;;;;;;;5.89;58.61;101037.03;669365;29;766;-84
2024/01/07 00:58:36;;;;;;;11.52;6.20;;;;;;;5.82;58.34;101031.47;671796;29;1305;-83
2024/01/07 00:58:57;;;;;;;9.75;6.00;;;;;;;5.83;58.58;101030.66;669476;29;1203;-83
2024/01/07 00:59:17;;;;;;;10.63;6.10;;;;;;;5.75;58.09;101025.97;671942;29;1601;-83
2024/01/07 00:59:38;;;;;;;10.27;6.30;;;;;;;5.82;58.44;101023.69;679260;29;1428;-83
2024/01/07 01:00:00;;;;;;;11.73;6.07;;;;;;;5.75;58.68;101028.53;674567;29;898;-83
2024/01/07 01:00:21;;;;;;;10.68;5.80;;;;;;;5.75;58.34;101025.06;674503;29;1261;-84
2024/01/07 01:00:42;;;;;;;7.80;5.05;;;;;;;5.72;58.27;101022.31;671556;29;1915;-83
2024/01/07 01:01:03;;;;;;;12.43;5.70;;;;;;;5.74;58.39;101026.78;669469;29;804;-83
2024/01/07 01:01:25;;;;;;;11.93;5.45;;;;;;;5.78;58.66;101030.41;669163;29;1493;-83
2024/01/07 01:01:45;;;;;;;7.45;5.07;;;;;;;5.78;58.53;101038.19;669258;29;789;-83
2024/01/07 01:02:06;;;;;;;5.70;5.10;;;;;;;5.88;58.69;101049.88;671828;29;1097;-84
2024/01/07 01:02:26;;;;;;;5.97;5.30;;;;;;;5.81;58.27;101037.41;671908;29;1115;-83
2024/01/07 01:02:47;;;;;;;6.88;5.43;;;;;;;5.77;58.63;101038.97;674405;29;1198;-83
2024/01/07 01:03:08;;;;;;;6.45;5.20;;;;;;;5.81;58.44;101048.69;672009;29;1299;-83
2024/01/07 01:03:28;;;;;;;8.80;5.72;;;;;;;5.73;58.29;101037.94;674283;29;1259;-82
2024/01/07 01:03:49;;;;;;;8.50;6.30;;;;;;;5.75;58.41;101035.41;671960;29;1050;-83
2024/01/07 01:04:10;;;;;;;9.02;6.10;;;;;;;5.78;58.48;101042.44;672062;29;749;-83
2024/01/07 01:04:30;;;;;;;7.20;5.53;;;;;;;5.82;58.49;101040.09;669005;29;1079;-83
2024/01/07 01:04:51;;;;;;;7.47;4.80;;;;;;;5.76;58.52;101044.97;666316;29;1176;-83
2024/01/07 01:05:11;;;;;;;7.05;5.07;;;;;;;5.72;58.80;101043.91;668567;29;1198;-83
2024/01/07 01:05:33;;;;;;;7.28;5.35;;;;;;;5.71;58.61;101042.13;669075;29;1528;-83
2024/01/07 01:05:54;;;;;;;8.52;6.13;;;;;;;5.70;58.58;101036.91;669205;29;1648;-83
2024/01/07 01:06:15;;;;;;;9.83;5.90;;;;;;;5.69;58.53;101043.75;674545;29;1247;-83
2024/01/07 01:06:35;;;;;;;10.33;6.10;;;;;;;5.66;58.44;101048.78;671720;29;1203;-83
2024/01/07 01:06:56;;;;;;;9.57;5.85;;;;;;;5.72;58.77;101049.09;674677;29;1010;-83
2024/01/07 01:07:17;;;;;;;7.73;5.80;;;;;;;5.65;58.71;101034.03;676041;29;765;-83
2024/01/07 01:07:37;;;;;;;8.52;5.85;;;;;;;5.74;58.57;101057.84;669262;29;977;-83
2024/01/07 01:07:58;;;;;;;9.55;6.25;;;;;;;5.70;58.60;101045.53;669544;29;877;-83
2024/01/07 01:08:18;;;;;;;10.40;6.23;;;;;;;5.66;58.71;101038.44;669359;29;1235;-84
2024/01/07 01:08:40;;;;;;;10.23;5.90;;;;;;;5.70;58.47;101044.66;671757;29;1056;-83
2024/01/07 01:09:00;;;;;;;10.45;6.00;;;;;;;5.68;58.75;101039.38;677097;29;1127;-84
2024/01/07 01:09:21;;;;;;;9.17;6.03;;;;;;;5.70;58.50;101044.66;674464;29;966;-83
2024/01/07 01:09:41;;;;;;;7.43;5.70;;;;;;;5.71;58.92;101046.44;669256;29;1138;-83
2024/01/07 01:10:02;;;;;;;8.20;5.63;;;;;;;5.72;58.49;101040.44;669343;29;1285;-83
2024/01/07 01:10:23;;;;;;;8.50;5.40;;;;;;;5.80;58.32;101048.59;669361;29;1201;-84
2024/01/07 01:10:44;;;;;;;9.10;6.13;;;;;;;5.71;58.58;101047.31;666820;29;1240;-83
2024/01/07 01:11:04;;;;;;;8.17;5.93;;;;;;;5.69;58.64;101042.84;666899;29;1093;-83
2024/01/07 01:11:25;;;;;;;9.30;6.47;;;;;;;5.75;58.43;101038.91;666897;29;1142;-83
2024/01/07 01:11:45;;;;;;;8.33;5.70;;;;;;;5.72;58.39;101033.53;666825;29;1180;-84
2024/01/07 01:12:06;;;;;;;7.43;5.40;;;;;;;5.74;58.76;101044.00;666829;29;1211;-84
2024/01/07 01:12:26;;;;;;;7.10;5.30;;;;;;;5.73;58.60;101030.19;669387;29;1173;-84
2024/01/07 01:12:47;;;;;;;8.20;5.83;;;;;;;5.74;58.64;101041.41;669363;29;866;-84
2024/01/07 01:13:09;;;;;;;9.77;6.47;;;;;;;5.73;58.40;101042.22;666929;29;1177;-83
2024/01/07 01:13:29;;;;;;;10.20;6.38;;;;;;;5.77;58.67;101048.44;669213;29;1092;-83
2024/01/07 01:13:50;;;;;;;8.07;5.72;;;;;;;5.68;58.38;101039.38;666928;29;1077;-83
2024/01/07 01:14:11;;;;;;;6.97;5.50;;;;;;;5.64;58.58;101040.03;671492;29;1768;-83
2024/01/07 01:14:31;;;;;;;6.60;5.70;;;;;;;5.73;58.39;101050.88;671863;29;1163;-84
2024/01/07 01:14:52;;;;;;;8.55;5.80;;;;;;;5.70;58.72;101040.34;674450;29;1145;-84
2024/01/07 01:15:12;;;;;;;7.90;5.30;;;;;;;5.69;58.73;101041.16;677227;29;975;-83
2024/01/07 01:15:33;;;;;;;8.95;5.03;;;;;;;5.74;58.82;101046.59;673807;29;1204;-84
2024/01/07 01:15:55;;;;;;;8.00;4.70;;;;;;;5.72;58.68;101040.44;672107;29;797;-84
2024/01/07 01:16:15;;;;;;;9.90;5.20;;;;;;;5.78;58.63;101043.34;674560;29;1265;-84
2024/01/07 01:16:36;;;;;;;8.80;5.27;;;;;;;5.80;58.47;101054.69;674270;29;1042;-84
2024/01/07 01:16:57;;;;;;;6.82;5.30;;;;;;;5.75;59.02;101050.94;672005;29;964;-84
2024/01/07 01:17:17;;;;;;;6.57;5.10;;;;;;;5.78;58.72;101051.13;672563;29;959;-84
2024/01/07 01:17:38;;;;;;;7.65;5.32;;;;;;;5.80;58.69;101051.19;676858;29;1309;-84
2024/01/07 01:17:58;;;;;;;8.13;5.50;;;;;;;5.81;58.69;101048.69;674560;29;1283;-83
2024/01/07 01:18:19;;;;;;;8.02;5.78;;;;;;;5.78;58.41;101045.03;672052;29;1002;-84
2024/01/07 01:18:40;;;;;;;6.40;5.18;;;;;;;5.79;58.29;101041.63;669186;29;1403;-84
2024/01/07 01:19:01;;;;;;;7.60;5.63;;;;;;;5.81;58.30;101056.44;669493;29;802;-84
2024/01/07 01:19:21;;;;;;;8.57;5.57;;;;;;;5.78;58.64;101047.63;669518;29;1170;-84
2024/01/07 01:19:42;;;;;;;11.48;6.43;;;;;;;5.77;58.82;101046.72;673325;29;1051;-84
2024/01/07 01:20:03;;;;;;;11.20;6.40;;;;;;;5.74;58.81;101046.59;669479;29;816;-84
2024/01/07 01:20:23;;;;;;;9.63;5.95;;;;;;;5.79;58.69;101049.41;664388;29;1411;-84
2024/01/07 01:20:44;;;;;;;6.90;5.00;;;;;;;5.86;58.48;101056.69;666021;29;1978;-84
2024/01/07 01:21:04;;;;;;;7.40;5.20;;;;;;;5.82;58.74;101055.63;671973;29;948;-84
2024/01/07 01:21:25;;;;;;;8.50;5.70;;;;;;;5.91;58.07;101060.41;674637;29;1089;-84
2024/01/07 01:21:45;;;;;;;10.68;6.32;;;;;;;5.91;58.09;101052.66;674363;29;1656;-84
2024/01/07 01:22:06;;;;;;;10.37;6.30;;;;;;;5.84;58.49;101050.56;669187;29;1281;-84
2024/01/07 01:22:27;;;;;;;11.35;6.53;;;;;;;5.81;58.14;101047.78;671842;29;1518;-84
2024/01/07 01:22:47;;;;;;;9.75;6.20;;;;;;;5.78;58.17;101037.28;669205;29;1186;-83
2024/01/07 01:23:08;;;;;;;9.77;5.87;;;;;;;5.78;58.33;101047.63;669389;29;1044;-84
2024/01/07 01:23:28;;;;;;;8.75;5.72;;;;;;;5.84;58.80;101053.13;669322;29;1162;-84
2024/01/07 01:23:49;;;;;;;7.63;5.32;;;;;;;5.74;58.29;101034.53;671826;29;1156;-84
2024/01/07 01:24:09;;;;;;;7.40;5.40;;;;;;;5.77;58.63;101045.84;669393;29;1251;-84
2024/01/07 01:24:30;;;;;;;8.80;5.65;;;;;;;5.75;58.47;101057.03;669202;29;1058;-84
2024/01/07 01:24:52;;;;;;;9.27;5.83;;;;;;;5.80;58.47;101051.19;671367;29;1071;-84
2024/01/07 01:25:13;;;;;;;8.88;5.57;;;;;;;5.79;58.49;101050.31;671993;29;1014;-84
2024/01/07 01:25:35;;;;;;;8.05;5.07;;;;;;;5.70;58.33;101050.72;671682;29;1001;-84
2024/01/07 01:25:56;;;;;;;8.88;5.57;;;;;;;5.73;58.46;101055.16;672099;29;785;-84
2024/01/07 01:26:16;;;;;;;9.90;6.10;;;;;;;5.78;58.51;101063.19;672722;29;1337;-84
2024/01/07 01:26:39;;;;;;;9.37;5.97;;;;;;;5.72;58.39;101054.25;674439;29;983;-84
2024/01/07 01:27:00;;;;;;;7.72;5.40;;;;;;;5.67;58.55;101050.56;674385;29;959;-84
2024/01/07 01:27:20;;;;;;;8.07;5.05;;;;;;;5.69;58.61;101048.94;671988;29;1179;-84
2024/01/07 01:27:41;;;;;;;6.13;4.60;;;;;;;5.72;58.72;101059.44;669180;29;1252;-84
2024/01/07 01:28:01;;;;;;;6.40;4.80;;;;;;;5.66;58.50;101043.59;669312;29;1205;-83
2024/01/07 01:28:25;;;;;;;5.90;5.07;;;;;;;5.69;58.57;101048.94;669353;29;1234;-85
2024/01/07 01:28:45;;;;;;;7.20;5.27;;;;;;;5.75;58.44;101058.72;673864;29;917;-84
2024/01/07 01:29:06;;;;;;;6.78;4.80;;;;;;;5.64;58.37;101047.78;669448;29;1214;-84
2024/01/07 01:29:26;;;;;;;6.25;4.60;;;;;;;5.71;58.62;101065.44;671859;29;1150;-84
2024/01/07 01:29:47;;;;;;;8.90;5.20;;;;;;;5.69;58.64;101050.63;671849;29;835;-84
2024/01/07 01:30:08;;;;;;;8.95;5.22;;;;;;;5.69;58.62;101064.47;671790;29;1176;-84
2024/01/07 01:30:31;;;;;;;10.70;6.05;;;;;;;5.73;58.42;101057.75;674441;29;1221;-84
2024/01/07 01:30:52;;;;;;;8.18;5.85;;;;;;;5.73;58.19;101058.66;669439;29;1382;-85
2024/01/07 01:31:14;;;;;;;10.18;5.57;;;;;;;5.75;58.30;101054.44;669402;29;869;-84
2024/01/07 01:31:35;;;;;;;9.15;5.50;;;;;;;5.78;58.52;101063.19;671574;29;1133;-84
2024/01/07 01:31:57;;;;;;;9.73;5.35;;;;;;;5.70;58.36;101042.94;672003;29;1190;-84
2024/01/07 01:32:17;;;;;;;8.88;5.75;;;;;;;5.69;58.75;101043.75;672063;29;1261;-85
2024/01/07 01:32:38;;;;;;;9.50;5.28;;;;;;;5.72;58.48;101059.44;669077;29;1218;-84
2024/01/07 01:32:59;;;;;;;9.18;4.55;;;;;;;5.70;58.54;101050.72;671847;29;1201;-85
2024/01/07 01:33:19;;;;;;;9.13;4.20;;;;;;;5.73;58.18;101060.34;672023;29;1173;-84
2024/01/07 01:33:40;;;;;;;7.65;4.20;;;;;;;5.71;58.46;101049.91;671760;29;1231;-84
2024/01/07 01:34:01;;;;;;;6.25;4.60;;;;;;;5.72;58.54;101058.56;669411;29;1256;-84
2024/01/07 01:34:21;;;;;;;6.38;4.55;;;;;;;5.69;58.54;101059.28;669465;29;1296;-85
2024/01/07 01:34:42;;;;;;;7.90;4.90;;;;;;;5.74;58.52;101068.22;666949;29;1271;-84
2024/01/07 01:35:04;;;;;;;10.63;5.28;;;;;;;5.70;58.36;101065.38;666935;29;1158;-84
2024/01/07 01:35:25;;;;;;;9.90;5.35;;;;;;;5.70;58.47;101068.84;666910;29;1277;-84
2024/01/07 01:35:45;;;;;;;8.67;5.10;;;;;;;5.69;58.65;101061.88;671150;29;1196;-84
2024/01/07 01:36:07;;;;;;;6.93;5.18;;;;;;;5.72;58.49;101068.94;671969;29;1199;-84
2024/01/07 01:36:27;;;;;;;7.82;5.30;;;;;;;5.71;58.43;101067.16;671819;29;1161;-84
2024/01/07 01:36:48;;;;;;;8.23;5.20;;;;;;;5.70;58.39;101068.84;676623;29;1273;-84
2024/01/07 01:37:09;;;;;;;7.03;4.70;;;;;;;5.74;58.30;101068.22;674642;29;922;-85
2024/01/07 01:37:32;;;;;;;5.90;4.50;;;;;;;5.70;58.28;101074.03;676524;29;1426;-84
2024/01/07 01:37:58;;;;;;;6.47;5.00;;;;;;;5.71;58.57;101073.22;667011;29;839;-85
2024/01/07 01:38:18;;;;;;;6.97;5.00;;;;;;;5.67;58.52;101060.91;666861;29;1293;-84
2024/01/07 01:38:39;;;;;;;6.33;4.90;;;;;;;5.67;58.68;101065.19;671637;29;1186;-85
2024/01/07 01:41:22;;;;;;;9.20;5.07;;;;;;;5.78;58.37;101091.66;677028;29;1909;-85
2024/01/07 01:41:46;;;;;;;8.73;5.32;;;;;;;5.68;58.53;101067.88;677023;29;936;-84
2024/01/07 01:42:07;;;;;;;8.48;5.50;;;;;;;5.67;58.25;101079.03;674647;29;820;-84
2024/01/07 01:42:28;;;;;;;8.40;6.10;;;;;;;5.68;58.37;101077.31;669614;29;1134;-84
2024/01/07 01:42:48;;;;;;;9.60;6.37;;;;;;;5.71;58.70;101086.16;669577;29;929;-84
2024/01/07 01:43:09;;;;;;;8.47;5.67;;;;;;;5.69;58.31;101079.09;672018;29;781;-85
2024/01/07 01:43:29;;;;;;;8.38;5.45;;;;;;;5.64;58.49;101060.75;677064;29;1111;-84
2024/01/07 01:43:50;;;;;;;7.67;5.47;;;;;;;5.69;58.49;101072.25;669319;29;1273;-85